DAL613 KATW-KATL
Flight info
| Callsign | DAL613 |
|---|---|
| Flight time | 1h 48m |
| Altitude | 36000 |
| Route | BAE JOT/N0458F350 RBS PXV HITMN NEWBB IHAVE MTHEW CHPPR1 |
| Aircraft | B722/M-SDFGHRWY/C |
Departure
| Time | 2026-05-08 23:46 |
|---|---|
| Airport | Appleton International Airport (KATW) |
Arrival
| Time | 2026-05-09 01:35 |
|---|---|
| Airport | Hartsfield Jackson Atlanta International Airport (KATL) |
| Time | Latitude | Longitude | Altitude | Speed | Heading |
|---|---|---|---|---|---|
| 2026-05-08 23:35 | 44.25978 | -88.51327 | 881 ft | 0 kts | 43° |
| 2026-05-08 23:39 | 44.25964 | -88.51339 | 881 ft | 3 kts | 7° |
| 2026-05-08 23:39 | 44.25947 | -88.51331 | 881 ft | 1 kts | 310° |
| 2026-05-08 23:42 | 44.25951 | -88.51338 | 881 ft | 4 kts | 299° |
| 2026-05-08 23:42 | 44.25942 | -88.51377 | 882 ft | 4 kts | 193° |
| 2026-05-08 23:43 | 44.25917 | -88.51331 | 881 ft | 12 kts | 107° |
| 2026-05-08 23:43 | 44.25849 | -88.51262 | 881 ft | 14 kts | 174° |
| 2026-05-08 23:43 | 44.25746 | -88.51256 | 885 ft | 15 kts | 186° |
| 2026-05-08 23:43 | 44.25654 | -88.51269 | 890 ft | 11 kts | 147° |
| 2026-05-08 23:44 | 44.25602 | -88.51162 | 889 ft | 16 kts | 121° |
| 2026-05-08 23:44 | 44.25549 | -88.51015 | 889 ft | 13 kts | 114° |
| 2026-05-08 23:44 | 44.25505 | -88.50882 | 887 ft | 18 kts | 115° |
| 2026-05-08 23:44 | 44.25453 | -88.50736 | 883 ft | 13 kts | 131° |
| 2026-05-08 23:45 | 44.25375 | -88.50737 | 885 ft | 12 kts | 213° |
| 2026-05-08 23:45 | 44.25373 | -88.50852 | 886 ft | 8 kts | 295° |
| 2026-05-08 23:45 | 44.25376 | -88.50860 | 887 ft | 9 kts | 295° |
| 2026-05-08 23:45 | 44.25520 | -88.51272 | 894 ft | 84 kts | 296° |
| 2026-05-08 23:46 | 44.25875 | -88.52283 | 954 ft | 138 kts | 296° |
| 2026-05-08 23:46 | 44.26286 | -88.53561 | 1468 ft | 148 kts | 289° |
| 2026-05-08 23:46 | 44.26721 | -88.54892 | 2184 ft | 154 kts | 292° |
| 2026-05-08 23:46 | 44.27198 | -88.56266 | 2895 ft | 161 kts | 289° |
| 2026-05-08 23:47 | 44.27684 | -88.57701 | 3586 ft | 164 kts | 288° |
| 2026-05-08 23:47 | 44.28107 | -88.59143 | 4350 ft | 157 kts | 277° |
| 2026-05-08 23:47 | 44.27831 | -88.60501 | 5040 ft | 151 kts | 223° |
| 2026-05-08 23:47 | 44.26826 | -88.60800 | 5743 ft | 161 kts | 175° |
| 2026-05-08 23:48 | 44.25718 | -88.60349 | 6345 ft | 175 kts | 162° |
| 2026-05-08 23:48 | 44.24646 | -88.59451 | 6960 ft | 188 kts | 146° |
| 2026-05-08 23:48 | 44.23630 | -88.58068 | 7416 ft | 221 kts | 137° |
| 2026-05-08 23:48 | 44.22478 | -88.56413 | 7898 ft | 255 kts | 138° |
| 2026-05-08 23:49 | 44.21165 | -88.54563 | 8371 ft | 290 kts | 138° |
| 2026-05-08 23:49 | 44.19724 | -88.52557 | 8825 ft | 293 kts | 138° |
| 2026-05-08 23:49 | 44.18221 | -88.50636 | 9252 ft | 291 kts | 149° |
| 2026-05-08 23:49 | 44.16382 | -88.49554 | 9646 ft | 286 kts | 173° |
| 2026-05-08 23:50 | 44.14403 | -88.49299 | 10067 ft | 286 kts | 183° |
| 2026-05-08 23:50 | 44.12407 | -88.49148 | 10460 ft | 290 kts | 180° |
| 2026-05-08 23:50 | 44.10387 | -88.48770 | 10858 ft | 296 kts | 176° |
| 2026-05-08 23:50 | 44.08340 | -88.48253 | 11261 ft | 299 kts | 175° |
| 2026-05-08 23:51 | 44.06272 | -88.47793 | 11667 ft | 305 kts | 178° |
| 2026-05-08 23:51 | 44.04076 | -88.47380 | 12073 ft | 333 kts | 178° |
| 2026-05-08 23:51 | 44.01711 | -88.46910 | 12502 ft | 344 kts | 176° |
| 2026-05-08 23:51 | 43.99341 | -88.46387 | 12915 ft | 346 kts | 176° |
| 2026-05-08 23:52 | 43.96904 | -88.45863 | 13322 ft | 366 kts | 177° |
| 2026-05-08 23:52 | 43.94379 | -88.45354 | 13734 ft | 366 kts | 177° |
| 2026-05-08 23:52 | 43.91844 | -88.44840 | 14130 ft | 369 kts | 177° |
| 2026-05-08 23:52 | 43.89295 | -88.44305 | 14540 ft | 371 kts | 177° |
| 2026-05-08 23:53 | 43.86773 | -88.43769 | 15024 ft | 372 kts | 177° |
| 2026-05-08 23:53 | 43.84203 | -88.43233 | 15524 ft | 375 kts | 178° |
| 2026-05-08 23:53 | 43.81614 | -88.42711 | 16026 ft | 377 kts | 178° |
| 2026-05-08 23:53 | 43.79009 | -88.42181 | 16527 ft | 380 kts | 178° |
| 2026-05-08 23:54 | 43.76385 | -88.41633 | 17029 ft | 383 kts | 178° |
| 2026-05-08 23:54 | 43.73745 | -88.41080 | 17529 ft | 385 kts | 178° |
| 2026-05-08 23:54 | 43.71083 | -88.40537 | 18022 ft | 388 kts | 178° |
| 2026-05-08 23:55 | 43.65709 | -88.39440 | 19029 ft | 394 kts | 178° |
| 2026-05-08 23:55 | 43.62988 | -88.38873 | 19534 ft | 396 kts | 178° |
| 2026-05-08 23:55 | 43.60260 | -88.38312 | 20033 ft | 398 kts | 178° |
| 2026-05-08 23:55 | 43.58405 | -88.37935 | 20364 ft | 400 kts | 179° |
| 2026-05-08 23:56 | 43.55641 | -88.37373 | 20870 ft | 403 kts | 178° |
| 2026-05-08 23:56 | 43.52855 | -88.36801 | 21373 ft | 406 kts | 179° |
| 2026-05-08 23:56 | 43.50047 | -88.36225 | 21872 ft | 408 kts | 179° |
| 2026-05-08 23:56 | 43.47228 | -88.35649 | 22372 ft | 411 kts | 179° |
| 2026-05-08 23:57 | 43.44386 | -88.35071 | 22873 ft | 415 kts | 179° |
| 2026-05-08 23:57 | 43.41523 | -88.34490 | 23371 ft | 417 kts | 179° |
| 2026-05-08 23:57 | 43.38643 | -88.33901 | 23873 ft | 420 kts | 179° |
| 2026-05-08 23:57 | 43.35787 | -88.33316 | 24367 ft | 422 kts | 179° |
| 2026-05-08 23:58 | 43.32868 | -88.32722 | 24873 ft | 425 kts | 179° |
| 2026-05-08 23:58 | 43.29931 | -88.32128 | 25364 ft | 428 kts | 180° |
| 2026-05-08 23:58 | 43.26983 | -88.31535 | 25870 ft | 430 kts | 180° |
| 2026-05-08 23:58 | 43.24016 | -88.30930 | 26364 ft | 432 kts | 180° |
| 2026-05-08 23:59 | 43.21031 | -88.30324 | 26873 ft | 435 kts | 180° |
| 2026-05-08 23:59 | 43.18025 | -88.29718 | 27369 ft | 437 kts | 180° |
| 2026-05-08 23:59 | 43.15018 | -88.29109 | 27872 ft | 438 kts | 180° |
| 2026-05-08 23:59 | 43.11990 | -88.28528 | 28370 ft | 437 kts | 183° |
| 2026-05-09 00:00 | 43.08973 | -88.28282 | 28869 ft | 432 kts | 189° |
| 2026-05-09 00:00 | 43.05987 | -88.28407 | 29370 ft | 427 kts | 193° |
| 2026-05-09 00:00 | 43.03021 | -88.28681 | 29868 ft | 428 kts | 193° |
| 2026-05-09 00:00 | 43.00029 | -88.28800 | 30377 ft | 432 kts | 190° |
| 2026-05-09 00:01 | 42.97016 | -88.28753 | 30812 ft | 434 kts | 189° |
| 2026-05-09 00:01 | 42.93995 | -88.28763 | 31184 ft | 434 kts | 191° |
| 2026-05-09 00:01 | 42.90978 | -88.28884 | 31557 ft | 436 kts | 192° |
| 2026-05-09 00:01 | 42.87932 | -88.28998 | 31933 ft | 439 kts | 190° |
| 2026-05-09 00:02 | 42.84867 | -88.29038 | 32313 ft | 441 kts | 191° |
| 2026-05-09 00:02 | 42.81795 | -88.29078 | 32687 ft | 442 kts | 191° |
| 2026-05-09 00:02 | 42.78722 | -88.29156 | 33062 ft | 441 kts | 191° |
| 2026-05-09 00:02 | 42.75652 | -88.29242 | 33437 ft | 441 kts | 191° |
| 2026-05-09 00:03 | 42.72584 | -88.29311 | 33809 ft | 441 kts | 191° |
| 2026-05-09 00:03 | 42.69517 | -88.29364 | 34182 ft | 441 kts | 191° |
| 2026-05-09 00:03 | 42.66453 | -88.29427 | 34553 ft | 440 kts | 191° |
| 2026-05-09 00:03 | 42.63387 | -88.29501 | 34769 ft | 444 kts | 191° |
| 2026-05-09 00:04 | 42.60271 | -88.29585 | 34768 ft | 452 kts | 191° |
| 2026-05-09 00:04 | 42.54117 | -88.29680 | 34780 ft | 434 kts | 191° |
| 2026-05-09 00:05 | 42.48035 | -88.29849 | 34777 ft | 439 kts | 191° |
| 2026-05-09 00:05 | 42.41931 | -88.29963 | 34790 ft | 439 kts | 191° |
| 2026-05-09 00:06 | 42.35832 | -88.30104 | 34791 ft | 438 kts | 192° |
| 2026-05-09 00:06 | 42.29736 | -88.30235 | 34788 ft | 438 kts | 191° |
| 2026-05-09 00:07 | 42.23638 | -88.30366 | 34791 ft | 438 kts | 192° |
| 2026-05-09 00:07 | 42.17544 | -88.30499 | 34791 ft | 438 kts | 192° |
| 2026-05-09 00:08 | 42.11452 | -88.30629 | 34788 ft | 438 kts | 192° |
| 2026-05-09 00:08 | 42.05361 | -88.30756 | 34801 ft | 431 kts | 192° |
| 2026-05-09 00:08 | 42.02414 | -88.30807 | 34790 ft | 419 kts | 193° |
| 2026-05-09 00:09 | 41.99498 | -88.30880 | 34783 ft | 420 kts | 193° |
| 2026-05-09 00:09 | 41.93629 | -88.31017 | 34781 ft | 422 kts | 193° |
| 2026-05-09 00:10 | 41.87797 | -88.31130 | 34782 ft | 422 kts | 193° |
| 2026-05-09 00:10 | 41.81929 | -88.31266 | 34787 ft | 422 kts | 193° |
| 2026-05-09 00:11 | 41.76061 | -88.31383 | 34786 ft | 422 kts | 193° |
| 2026-05-09 00:11 | 41.70189 | -88.31514 | 34785 ft | 422 kts | 193° |
| 2026-05-09 00:12 | 41.64329 | -88.31641 | 34788 ft | 420 kts | 193° |
| 2026-05-09 00:12 | 41.58476 | -88.31762 | 34798 ft | 421 kts | 193° |
| 2026-05-09 00:13 | 41.52587 | -88.31683 | 34799 ft | 430 kts | 187° |
| 2026-05-09 00:13 | 41.46574 | -88.30505 | 34799 ft | 438 kts | 182° |
| 2026-05-09 00:14 | 41.40632 | -88.29565 | 34796 ft | 431 kts | 187° |
| 2026-05-09 00:14 | 41.34645 | -88.28631 | 34797 ft | 434 kts | 184° |
| 2026-05-09 00:15 | 41.28652 | -88.27627 | 34805 ft | 433 kts | 186° |
| 2026-05-09 00:15 | 41.22659 | -88.26693 | 34805 ft | 434 kts | 185° |
| 2026-05-09 00:16 | 41.16658 | -88.25711 | 34815 ft | 433 kts | 185° |
| 2026-05-09 00:16 | 41.10660 | -88.24762 | 34811 ft | 434 kts | 185° |
| 2026-05-09 00:17 | 41.04654 | -88.23791 | 34817 ft | 434 kts | 185° |
| 2026-05-09 00:17 | 40.98656 | -88.22841 | 34821 ft | 434 kts | 185° |
| 2026-05-09 00:18 | 40.92648 | -88.21880 | 34840 ft | 435 kts | 185° |
| 2026-05-09 00:18 | 40.86643 | -88.20932 | 34840 ft | 435 kts | 185° |
| 2026-05-09 00:19 | 40.80636 | -88.19975 | 34841 ft | 434 kts | 185° |
| 2026-05-09 00:19 | 40.74629 | -88.19026 | 34842 ft | 434 kts | 185° |
| 2026-05-09 00:20 | 40.68637 | -88.18076 | 34842 ft | 433 kts | 185° |
| 2026-05-09 00:20 | 40.62651 | -88.17130 | 34845 ft | 434 kts | 185° |
| 2026-05-09 00:21 | 40.56659 | -88.16192 | 34849 ft | 434 kts | 185° |
| 2026-05-09 00:21 | 40.50662 | -88.15247 | 34853 ft | 435 kts | 185° |
| 2026-05-09 00:22 | 40.44689 | -88.14307 | 34854 ft | 435 kts | 185° |
| 2026-05-09 00:22 | 40.38679 | -88.13370 | 34855 ft | 434 kts | 185° |
| 2026-05-09 00:23 | 40.32670 | -88.12434 | 34852 ft | 437 kts | 184° |
| 2026-05-09 00:23 | 40.26656 | -88.11484 | 34854 ft | 435 kts | 185° |
| 2026-05-09 00:24 | 40.20635 | -88.10556 | 34856 ft | 435 kts | 185° |
| 2026-05-09 00:24 | 40.14616 | -88.09618 | 34863 ft | 435 kts | 185° |
| 2026-05-09 00:25 | 40.08599 | -88.08681 | 34863 ft | 435 kts | 185° |
| 2026-05-09 00:25 | 40.02590 | -88.07753 | 34862 ft | 435 kts | 185° |
| 2026-05-09 00:26 | 39.96612 | -88.06827 | 34860 ft | 435 kts | 185° |
| 2026-05-09 00:26 | 39.90600 | -88.05899 | 34873 ft | 435 kts | 185° |
| 2026-05-09 00:27 | 39.84591 | -88.04969 | 34876 ft | 435 kts | 185° |
| 2026-05-09 00:27 | 39.78577 | -88.04048 | 34871 ft | 435 kts | 185° |
| 2026-05-09 00:28 | 39.72560 | -88.03124 | 34876 ft | 435 kts | 185° |
| 2026-05-09 00:28 | 39.66542 | -88.02198 | 34881 ft | 435 kts | 185° |
| 2026-05-09 00:29 | 39.60536 | -88.01278 | 34886 ft | 433 kts | 185° |
| 2026-05-09 00:29 | 39.54546 | -88.00366 | 34881 ft | 433 kts | 185° |
| 2026-05-09 00:30 | 39.48555 | -87.99449 | 34879 ft | 433 kts | 185° |
| 2026-05-09 00:30 | 39.42553 | -87.98539 | 34882 ft | 433 kts | 185° |
| 2026-05-09 00:31 | 39.36606 | -87.97631 | 34882 ft | 434 kts | 185° |
| 2026-05-09 00:31 | 39.30617 | -87.96727 | 34886 ft | 433 kts | 186° |
| 2026-05-09 00:32 | 39.24624 | -87.95816 | 34884 ft | 434 kts | 185° |
| 2026-05-09 00:32 | 39.18648 | -87.94912 | 34882 ft | 432 kts | 185° |
| 2026-05-09 00:33 | 39.12684 | -87.94018 | 34881 ft | 432 kts | 186° |
| 2026-05-09 00:33 | 39.06708 | -87.93110 | 34886 ft | 432 kts | 186° |
| 2026-05-09 00:34 | 39.00740 | -87.92216 | 34884 ft | 432 kts | 186° |
| 2026-05-09 00:34 | 38.94775 | -87.91312 | 34885 ft | 430 kts | 186° |
| 2026-05-09 00:35 | 38.88836 | -87.90433 | 34881 ft | 430 kts | 186° |
| 2026-05-09 00:35 | 38.82896 | -87.89542 | 34883 ft | 430 kts | 186° |
| 2026-05-09 00:36 | 38.76949 | -87.88649 | 34884 ft | 430 kts | 186° |
| 2026-05-09 00:36 | 38.71006 | -87.87763 | 34884 ft | 429 kts | 186° |
| 2026-05-09 00:37 | 38.65086 | -87.86883 | 34885 ft | 428 kts | 186° |
| 2026-05-09 00:37 | 38.59203 | -87.86009 | 34886 ft | 429 kts | 186° |
| 2026-05-09 00:38 | 38.53280 | -87.85134 | 34884 ft | 429 kts | 186° |
| 2026-05-09 00:38 | 38.47358 | -87.84247 | 34884 ft | 428 kts | 186° |
| 2026-05-09 00:39 | 38.41434 | -87.83376 | 34886 ft | 428 kts | 186° |
| 2026-05-09 00:39 | 38.35516 | -87.82501 | 34887 ft | 428 kts | 186° |
| 2026-05-09 00:40 | 38.29624 | -87.81629 | 34887 ft | 426 kts | 186° |
| 2026-05-09 00:40 | 38.24683 | -87.80910 | 34888 ft | 427 kts | 186° |
| 2026-05-09 00:41 | 38.15869 | -87.79615 | 34890 ft | 426 kts | 186° |
| 2026-05-09 00:41 | 38.09971 | -87.78743 | 34889 ft | 427 kts | 186° |
| 2026-05-09 00:42 | 38.04071 | -87.77880 | 34888 ft | 427 kts | 186° |
| 2026-05-09 00:42 | 37.98175 | -87.77021 | 34901 ft | 426 kts | 186° |
| 2026-05-09 00:43 | 37.92268 | -87.75768 | 34903 ft | 448 kts | 174° |
| 2026-05-09 00:43 | 37.89334 | -87.74287 | 34908 ft | 459 kts | 169° |
| 2026-05-09 00:43 | 37.86450 | -87.72464 | 34913 ft | 466 kts | 165° |
| 2026-05-09 00:44 | 37.80716 | -87.68648 | 34908 ft | 461 kts | 168° |
| 2026-05-09 00:44 | 37.74905 | -87.65279 | 34915 ft | 462 kts | 167° |
| 2026-05-09 00:45 | 37.69149 | -87.61609 | 34913 ft | 462 kts | 167° |
| 2026-05-09 00:45 | 37.63377 | -87.58155 | 34912 ft | 459 kts | 168° |
| 2026-05-09 00:46 | 37.57622 | -87.54594 | 34914 ft | 461 kts | 167° |
| 2026-05-09 00:46 | 37.51858 | -87.51094 | 34912 ft | 459 kts | 168° |
| 2026-05-09 00:47 | 37.46102 | -87.47578 | 34912 ft | 460 kts | 168° |
| 2026-05-09 00:47 | 37.40378 | -87.44094 | 34911 ft | 460 kts | 168° |
| 2026-05-09 00:48 | 37.34623 | -87.40602 | 34914 ft | 458 kts | 168° |
| 2026-05-09 00:48 | 37.28887 | -87.37124 | 34913 ft | 458 kts | 168° |
| 2026-05-09 00:49 | 37.23149 | -87.33649 | 34913 ft | 458 kts | 168° |
| 2026-05-09 00:49 | 37.17412 | -87.30178 | 34914 ft | 457 kts | 169° |
| 2026-05-09 00:50 | 37.11667 | -87.26715 | 34914 ft | 458 kts | 169° |
| 2026-05-09 00:50 | 37.05928 | -87.23257 | 34917 ft | 459 kts | 169° |
| 2026-05-09 00:51 | 37.00193 | -87.19808 | 34916 ft | 457 kts | 169° |
| 2026-05-09 00:51 | 36.94488 | -87.16388 | 34911 ft | 459 kts | 169° |
| 2026-05-09 00:52 | 36.88743 | -87.12940 | 34916 ft | 457 kts | 169° |
| 2026-05-09 00:52 | 36.82997 | -87.09507 | 34915 ft | 457 kts | 169° |
| 2026-05-09 00:53 | 36.77256 | -87.06074 | 34922 ft | 458 kts | 169° |
| 2026-05-09 00:53 | 36.71517 | -87.02654 | 34924 ft | 457 kts | 169° |
| 2026-05-09 00:54 | 36.65769 | -86.99227 | 34922 ft | 457 kts | 169° |
| 2026-05-09 00:54 | 36.60041 | -86.95825 | 34925 ft | 454 kts | 170° |
| 2026-05-09 00:55 | 36.54322 | -86.92437 | 34923 ft | 455 kts | 170° |
| 2026-05-09 00:55 | 36.48611 | -86.89046 | 34925 ft | 455 kts | 170° |
| 2026-05-09 00:56 | 36.42897 | -86.85676 | 34924 ft | 454 kts | 170° |
| 2026-05-09 00:56 | 36.37176 | -86.82293 | 34920 ft | 456 kts | 170° |
| 2026-05-09 00:57 | 36.31454 | -86.78921 | 34936 ft | 455 kts | 170° |
| 2026-05-09 00:57 | 36.25780 | -86.75584 | 34935 ft | 455 kts | 171° |
| 2026-05-09 00:58 | 36.20070 | -86.72228 | 34934 ft | 454 kts | 171° |
| 2026-05-09 00:58 | 36.14352 | -86.68869 | 34943 ft | 455 kts | 170° |
| 2026-05-09 00:59 | 36.08709 | -86.65069 | 34947 ft | 469 kts | 164° |
| 2026-05-09 00:59 | 36.03132 | -86.60951 | 34956 ft | 462 kts | 167° |
| 2026-05-09 01:00 | 35.97496 | -86.57136 | 34963 ft | 465 kts | 166° |
| 2026-05-09 01:00 | 35.91924 | -86.53099 | 34966 ft | 462 kts | 166° |
| 2026-05-09 01:01 | 35.86314 | -86.49241 | 34961 ft | 463 kts | 166° |
| 2026-05-09 01:01 | 35.80763 | -86.45309 | 34959 ft | 462 kts | 166° |
| 2026-05-09 01:02 | 35.75159 | -86.41412 | 34656 ft | 463 kts | 166° |
| 2026-05-09 01:02 | 35.72378 | -86.39456 | 34265 ft | 458 kts | 166° |
| 2026-05-09 01:02 | 35.69647 | -86.37499 | 33866 ft | 452 kts | 166° |
| 2026-05-09 01:03 | 35.66939 | -86.35556 | 33464 ft | 448 kts | 167° |
| 2026-05-09 01:03 | 35.64232 | -86.33702 | 33058 ft | 442 kts | 169° |
| 2026-05-09 01:03 | 35.61498 | -86.32126 | 32950 ft | 431 kts | 173° |
| 2026-05-09 01:03 | 35.58748 | -86.30643 | 32952 ft | 434 kts | 172° |
| 2026-05-09 01:04 | 35.56002 | -86.28982 | 32951 ft | 447 kts | 167° |
| 2026-05-09 01:04 | 35.53333 | -86.26931 | 32956 ft | 458 kts | 162° |
| 2026-05-09 01:04 | 35.48095 | -86.22440 | 32963 ft | 455 kts | 163° |
| 2026-05-09 01:05 | 35.42728 | -86.18451 | 32973 ft | 457 kts | 162° |
| 2026-05-09 01:05 | 35.37622 | -86.13535 | 32967 ft | 474 kts | 154° |
| 2026-05-09 01:06 | 35.35130 | -86.10890 | 32823 ft | 473 kts | 156° |
| 2026-05-09 01:06 | 35.32575 | -86.08426 | 32511 ft | 461 kts | 159° |
| 2026-05-09 01:06 | 35.30009 | -86.06085 | 32189 ft | 459 kts | 158° |
| 2026-05-09 01:06 | 35.27481 | -86.03673 | 31869 ft | 460 kts | 156° |
| 2026-05-09 01:07 | 35.24996 | -86.01175 | 31538 ft | 462 kts | 155° |
| 2026-05-09 01:07 | 35.22505 | -85.98737 | 31205 ft | 454 kts | 158° |
| 2026-05-09 01:07 | 35.19986 | -85.96400 | 30883 ft | 458 kts | 158° |
| 2026-05-09 01:07 | 35.17477 | -85.94044 | 30560 ft | 455 kts | 158° |
| 2026-05-09 01:08 | 35.14997 | -85.91642 | 30189 ft | 457 kts | 157° |
| 2026-05-09 01:08 | 35.12551 | -85.89261 | 29805 ft | 451 kts | 157° |
| 2026-05-09 01:08 | 35.10086 | -85.86894 | 29353 ft | 451 kts | 157° |
| 2026-05-09 01:08 | 35.07624 | -85.84563 | 28930 ft | 446 kts | 156° |
| 2026-05-09 01:09 | 35.05140 | -85.82219 | 28490 ft | 446 kts | 156° |
| 2026-05-09 01:09 | 35.02708 | -85.79921 | 28057 ft | 440 kts | 156° |
| 2026-05-09 01:09 | 35.00328 | -85.77661 | 27641 ft | 440 kts | 154° |
| 2026-05-09 01:09 | 34.97912 | -85.75313 | 27213 ft | 439 kts | 153° |
| 2026-05-09 01:10 | 34.95523 | -85.73035 | 26737 ft | 434 kts | 154° |
| 2026-05-09 01:10 | 34.93129 | -85.70807 | 26268 ft | 432 kts | 154° |
| 2026-05-09 01:10 | 34.90785 | -85.68597 | 25789 ft | 431 kts | 153° |
| 2026-05-09 01:10 | 34.88435 | -85.66351 | 25235 ft | 426 kts | 153° |
| 2026-05-09 01:11 | 34.86073 | -85.64170 | 24796 ft | 428 kts | 152° |
| 2026-05-09 01:11 | 34.83752 | -85.61932 | 24318 ft | 424 kts | 150° |
| 2026-05-09 01:11 | 34.81455 | -85.59696 | 24008 ft | 420 kts | 150° |
| 2026-05-09 01:11 | 34.79144 | -85.57523 | 23998 ft | 421 kts | 151° |
| 2026-05-09 01:12 | 34.76805 | -85.55361 | 24002 ft | 422 kts | 151° |
| 2026-05-09 01:12 | 34.74475 | -85.53159 | 24015 ft | 425 kts | 150° |
| 2026-05-09 01:12 | 34.72162 | -85.50940 | 23803 ft | 423 kts | 150° |
| 2026-05-09 01:12 | 34.69852 | -85.48751 | 23451 ft | 419 kts | 151° |
| 2026-05-09 01:13 | 34.67556 | -85.46604 | 22973 ft | 415 kts | 150° |
| 2026-05-09 01:13 | 34.65285 | -85.44465 | 22432 ft | 410 kts | 150° |
| 2026-05-09 01:13 | 34.63038 | -85.42342 | 21903 ft | 407 kts | 150° |
| 2026-05-09 01:13 | 34.60816 | -85.40246 | 21359 ft | 404 kts | 149° |
| 2026-05-09 01:14 | 34.58610 | -85.38162 | 20743 ft | 398 kts | 149° |
| 2026-05-09 01:14 | 34.56428 | -85.36123 | 20190 ft | 394 kts | 149° |
| 2026-05-09 01:14 | 34.54266 | -85.34106 | 19637 ft | 389 kts | 149° |
| 2026-05-09 01:14 | 34.52138 | -85.32106 | 19068 ft | 386 kts | 149° |
| 2026-05-09 01:15 | 34.50053 | -85.30141 | 18529 ft | 381 kts | 148° |
| 2026-05-09 01:15 | 34.47972 | -85.28193 | 17957 ft | 376 kts | 149° |
| 2026-05-09 01:15 | 34.45911 | -85.26267 | 17424 ft | 373 kts | 148° |
| 2026-05-09 01:15 | 34.43871 | -85.24354 | 16885 ft | 369 kts | 148° |
| 2026-05-09 01:16 | 34.41848 | -85.22457 | 16347 ft | 367 kts | 148° |
| 2026-05-09 01:16 | 34.39840 | -85.20579 | 15820 ft | 363 kts | 148° |
| 2026-05-09 01:16 | 34.37849 | -85.18715 | 15300 ft | 361 kts | 148° |
| 2026-05-09 01:17 | 34.33908 | -85.15055 | 14268 ft | 353 kts | 147° |
| 2026-05-09 01:17 | 34.31977 | -85.13236 | 13749 ft | 350 kts | 147° |
| 2026-05-09 01:17 | 34.30073 | -85.11459 | 13255 ft | 341 kts | 148° |
| 2026-05-09 01:17 | 34.28222 | -85.09736 | 12802 ft | 331 kts | 147° |
| 2026-05-09 01:18 | 34.26443 | -85.08082 | 12821 ft | 316 kts | 148° |
| 2026-05-09 01:18 | 34.24689 | -85.06466 | 12932 ft | 318 kts | 148° |
| 2026-05-09 01:18 | 34.22931 | -85.04831 | 13006 ft | 320 kts | 147° |
| 2026-05-09 01:18 | 34.21170 | -85.03179 | 13006 ft | 320 kts | 148° |
| 2026-05-09 01:19 | 34.19410 | -85.01544 | 13005 ft | 319 kts | 148° |
| 2026-05-09 01:19 | 34.17643 | -84.99905 | 12932 ft | 322 kts | 148° |
| 2026-05-09 01:19 | 34.15869 | -84.98263 | 12712 ft | 321 kts | 147° |
| 2026-05-09 01:19 | 34.14104 | -84.96613 | 12343 ft | 321 kts | 147° |
| 2026-05-09 01:20 | 34.12344 | -84.94961 | 12027 ft | 317 kts | 147° |
| 2026-05-09 01:20 | 34.10628 | -84.93317 | 12026 ft | 316 kts | 146° |
| 2026-05-09 01:20 | 34.08921 | -84.91699 | 12024 ft | 316 kts | 147° |
| 2026-05-09 01:20 | 34.07194 | -84.90060 | 12027 ft | 316 kts | 146° |
| 2026-05-09 01:21 | 34.05523 | -84.88328 | 12023 ft | 318 kts | 142° |
| 2026-05-09 01:21 | 34.04001 | -84.86372 | 12021 ft | 321 kts | 133° |
| 2026-05-09 01:21 | 34.02616 | -84.84251 | 12023 ft | 324 kts | 132° |
| 2026-05-09 01:21 | 34.01198 | -84.82149 | 12024 ft | 321 kts | 135° |
| 2026-05-09 01:22 | 33.99714 | -84.80136 | 12021 ft | 322 kts | 136° |
| 2026-05-09 01:22 | 33.98286 | -84.78212 | 12022 ft | 323 kts | 135° |
| 2026-05-09 01:22 | 33.96819 | -84.76160 | 12015 ft | 324 kts | 134° |
| 2026-05-09 01:22 | 33.95364 | -84.74083 | 12009 ft | 324 kts | 134° |
| 2026-05-09 01:23 | 33.93896 | -84.72035 | 12008 ft | 323 kts | 135° |
| 2026-05-09 01:23 | 33.92414 | -84.69991 | 12008 ft | 324 kts | 135° |
| 2026-05-09 01:23 | 33.90942 | -84.67947 | 12007 ft | 323 kts | 135° |
| 2026-05-09 01:23 | 33.89478 | -84.65901 | 12008 ft | 323 kts | 135° |
| 2026-05-09 01:24 | 33.88002 | -84.63856 | 12007 ft | 325 kts | 135° |
| 2026-05-09 01:24 | 33.86521 | -84.61799 | 11998 ft | 325 kts | 135° |
| 2026-05-09 01:24 | 33.85041 | -84.59750 | 11998 ft | 325 kts | 136° |
| 2026-05-09 01:24 | 33.83563 | -84.57678 | 11998 ft | 323 kts | 134° |
| 2026-05-09 01:25 | 33.82092 | -84.55621 | 11999 ft | 324 kts | 136° |
| 2026-05-09 01:25 | 33.80596 | -84.53583 | 12009 ft | 324 kts | 135° |
| 2026-05-09 01:25 | 33.79115 | -84.51534 | 12011 ft | 325 kts | 134° |
| 2026-05-09 01:25 | 33.77647 | -84.49476 | 12004 ft | 323 kts | 135° |
| 2026-05-09 01:26 | 33.76164 | -84.47432 | 12004 ft | 323 kts | 136° |
| 2026-05-09 01:26 | 33.74716 | -84.45365 | 11927 ft | 328 kts | 130° |
| 2026-05-09 01:26 | 33.73705 | -84.42927 | 11500 ft | 325 kts | 111° |
| 2026-05-09 01:26 | 33.73358 | -84.41189 | 11198 ft | 323 kts | 98° |
| 2026-05-09 01:27 | 33.73200 | -84.37666 | 10600 ft | 312 kts | 88° |
| 2026-05-09 01:27 | 33.73293 | -84.35113 | 10169 ft | 309 kts | 88° |
| 2026-05-09 01:27 | 33.73341 | -84.32548 | 9692 ft | 304 kts | 91° |
| 2026-05-09 01:27 | 33.73308 | -84.30027 | 9194 ft | 300 kts | 92° |
| 2026-05-09 01:28 | 33.73287 | -84.28346 | 8855 ft | 297 kts | 91° |
| 2026-05-09 01:28 | 33.73291 | -84.25889 | 8357 ft | 292 kts | 90° |
| 2026-05-09 01:28 | 33.73305 | -84.23463 | 7858 ft | 288 kts | 90° |
| 2026-05-09 01:28 | 33.73314 | -84.21109 | 7365 ft | 283 kts | 91° |
| 2026-05-09 01:29 | 33.73310 | -84.18793 | 6997 ft | 265 kts | 91° |
| 2026-05-09 01:29 | 33.73303 | -84.16595 | 6993 ft | 267 kts | 92° |
| 2026-05-09 01:29 | 33.72949 | -84.14415 | 6677 ft | 266 kts | 117° |
| 2026-05-09 01:29 | 33.71766 | -84.12822 | 6150 ft | 253 kts | 152° |
| 2026-05-09 01:30 | 33.70130 | -84.12179 | 5667 ft | 246 kts | 171° |
| 2026-05-09 01:30 | 33.68439 | -84.12151 | 5159 ft | 243 kts | 195° |
| 2026-05-09 01:30 | 33.67047 | -84.13207 | 4657 ft | 239 kts | 227° |
| 2026-05-09 01:30 | 33.66063 | -84.14821 | 4172 ft | 241 kts | 237° |
| 2026-05-09 01:31 | 33.65161 | -84.16500 | 3687 ft | 239 kts | 237° |
| 2026-05-09 01:31 | 33.64551 | -84.18337 | 3159 ft | 241 kts | 263° |
| 2026-05-09 01:31 | 33.64702 | -84.20334 | 3008 ft | 243 kts | 281° |
| 2026-05-09 01:31 | 33.65226 | -84.22263 | 3013 ft | 244 kts | 290° |
| 2026-05-09 01:32 | 33.65411 | -84.24235 | 3106 ft | 241 kts | 258° |
| 2026-05-09 01:32 | 33.65071 | -84.26136 | 3403 ft | 216 kts | 261° |
| 2026-05-09 01:32 | 33.65009 | -84.27882 | 2942 ft | 207 kts | 269° |
| 2026-05-09 01:32 | 33.65040 | -84.29583 | 2679 ft | 190 kts | 266° |
| 2026-05-09 01:33 | 33.64939 | -84.31059 | 2738 ft | 172 kts | 263° |
| 2026-05-09 01:33 | 33.64916 | -84.32510 | 2555 ft | 177 kts | 270° |
| 2026-05-09 01:33 | 33.64922 | -84.33991 | 2310 ft | 184 kts | 269° |
| 2026-05-09 01:33 | 33.64964 | -84.35558 | 2033 ft | 189 kts | 270° |
| 2026-05-09 01:34 | 33.64978 | -84.37045 | 1898 ft | 166 kts | 266° |
| 2026-05-09 01:34 | 33.64945 | -84.38371 | 1700 ft | 155 kts | 268° |
| 2026-05-09 01:34 | 33.64951 | -84.39673 | 1374 ft | 155 kts | 268° |
| 2026-05-09 01:34 | 33.64946 | -84.40945 | 1067 ft | 145 kts | 271° |
| 2026-05-09 01:35 | 33.64956 | -84.42007 | 1010 ft | 99 kts | 271° |
| 2026-05-09 01:35 | 33.64942 | -84.42564 | 1010 ft | 46 kts | 260° |
| 2026-05-09 01:35 | 33.64867 | -84.42801 | 1010 ft | 14 kts | 243° |
| 2026-05-09 01:35 | 33.64811 | -84.42933 | 1010 ft | 23 kts | 243° |
| 2026-05-09 01:36 | 33.64791 | -84.43070 | 1010 ft | 16 kts | 269° |
| 2026-05-09 01:36 | 33.64790 | -84.43223 | 1010 ft | 21 kts | 272° |
| 2026-05-09 01:36 | 33.64828 | -84.43380 | 1010 ft | 20 kts | 291° |
| 2026-05-09 01:36 | 33.64842 | -84.43564 | 1010 ft | 25 kts | 269° |
| 2026-05-09 01:37 | 33.64841 | -84.43760 | 1010 ft | 20 kts | 269° |
| 2026-05-09 01:37 | 33.64796 | -84.43933 | 1009 ft | 24 kts | 249° |
| 2026-05-09 01:37 | 33.64781 | -84.44123 | 1009 ft | 25 kts | 270° |
| 2026-05-09 01:37 | 33.64755 | -84.44291 | 1010 ft | 15 kts | 223° |
| 2026-05-09 01:38 | 33.64639 | -84.44330 | 1010 ft | 16 kts | 164° |
| 2026-05-09 01:38 | 33.64579 | -84.44197 | 1010 ft | 22 kts | 102° |
| 2026-05-09 01:38 | 33.64512 | -84.44116 | 1010 ft | 16 kts | 173° |
| 2026-05-09 01:38 | 33.64388 | -84.44113 | 1010 ft | 17 kts | 176° |
| 2026-05-09 01:39 | 33.64314 | -84.44151 | 1010 ft | 9 kts | 256° |
| 2026-05-09 01:39 | 33.64314 | -84.44185 | 1010 ft | 0 kts | 268° |